sensor_id;sensor_type;location;lat;lon;timestamp;pressure;altitude;pressure_sealevel;temperature;humidity
70546;BME280;58098;51.680;5.134;2023-05-23T00:01:28;101977.19;;;14.14;100.00
70546;BME280;58098;51.680;5.134;2023-05-23T00:03:56;101995.09;;;14.20;100.00
70546;BME280;58098;51.680;5.134;2023-05-23T00:06:21;101988.75;;;14.22;100.00
70546;BME280;58098;51.680;5.134;2023-05-23T00:08:46;101979.94;;;14.23;100.00
70546;BME280;58098;51.680;5.134;2023-05-23T00:11:12;101973.25;;;14.19;100.00
70546;BME280;58098;51.680;5.134;2023-05-23T00:13:37;101976.19;;;14.04;100.00
70546;BME280;58098;51.680;5.134;2023-05-23T00:16:04;101990.53;;;14.11;100.00
70546;BME280;58098;51.680;5.134;2023-05-23T00:18:29;102000.19;;;14.10;100.00
70546;BME280;58098;51.680;5.134;2023-05-23T00:20:55;101999.09;;;14.02;100.00
70546;BME280;58098;51.680;5.134;2023-05-23T00:23:21;101960.25;;;13.83;100.00
70546;BME280;58098;51.680;5.134;2023-05-23T00:25:49;102005.88;;;13.93;100.00
70546;BME280;58098;51.680;5.134;2023-05-23T00:28:17;101998.47;;;13.87;100.00
70546;BME280;58098;51.680;5.134;2023-05-23T00:30:43;102001.19;;;13.85;100.00
70546;BME280;58098;51.680;5.134;2023-05-23T00:33:08;102014.63;;;13.81;100.00
70546;BME280;58098;51.680;5.134;2023-05-23T00:35:33;102008.94;;;13.63;100.00
70546;BME280;58098;51.680;5.134;2023-05-23T00:37:59;102007.03;;;13.65;100.00
70546;BME280;58098;51.680;5.134;2023-05-23T00:40:26;102016.56;;;13.55;100.00
70546;BME280;58098;51.680;5.134;2023-05-23T00:42:51;102015.81;;;13.53;100.00
70546;BME280;58098;51.680;5.134;2023-05-23T00:45:17;102029.09;;;13.63;100.00
70546;BME280;58098;51.680;5.134;2023-05-23T00:47:43;102032.03;;;13.58;100.00
70546;BME280;58098;51.680;5.134;2023-05-23T00:50:13;102030.59;;;13.54;100.00
70546;BME280;58098;51.680;5.134;2023-05-23T00:52:40;102028.41;;;13.48;100.00
70546;BME280;58098;51.680;5.134;2023-05-23T00:55:06;102035.72;;;13.56;100.00
70546;BME280;58098;51.680;5.134;2023-05-23T00:57:32;102037.25;;;13.47;100.00
70546;BME280;58098;51.680;5.134;2023-05-23T00:59:59;102035.81;;;13.43;100.00
70546;BME280;58098;51.680;5.134;2023-05-23T01:02:25;102018.00;;;13.36;100.00
70546;BME280;58098;51.680;5.134;2023-05-23T01:04:52;102051.53;;;13.43;100.00
70546;BME280;58098;51.680;5.134;2023-05-23T01:07:20;102020.69;;;13.34;100.00
70546;BME280;58098;51.680;5.134;2023-05-23T01:09:45;102029.28;;;13.36;100.00
70546;BME280;58098;51.680;5.134;2023-05-23T01:15:03;102029.38;;;13.47;100.00
70546;BME280;58098;51.680;5.134;2023-05-23T01:20:11;102036.59;;;13.44;100.00
70546;BME280;58098;51.680;5.134;2023-05-23T01:28:45;102037.66;;;13.41;100.00
70546;BME280;58098;51.680;5.134;2023-05-23T01:31:12;102029.00;;;13.41;100.00
70546;BME280;58098;51.680;5.134;2023-05-23T01:33:39;102028.88;;;13.42;100.00
70546;BME280;58098;51.680;5.134;2023-05-23T01:36:05;102037.47;;;13.44;100.00
70546;BME280;58098;51.680;5.134;2023-05-23T01:38:30;102025.06;;;13.46;100.00
70546;BME280;58098;51.680;5.134;2023-05-23T01:40:55;102047.53;;;13.50;100.00
70546;BME280;58098;51.680;5.134;2023-05-23T01:43:21;102032.50;;;13.52;100.00
70546;BME280;58098;51.680;5.134;2023-05-23T01:45:48;102050.34;;;13.47;100.00
70546;BME280;58098;51.680;5.134;2023-05-23T01:48:14;102043.09;;;13.51;100.00
70546;BME280;58098;51.680;5.134;2023-05-23T01:50:41;102050.41;;;13.58;100.00
70546;BME280;58098;51.680;5.134;2023-05-23T01:53:11;102046.69;;;13.50;100.00
70546;BME280;58098;51.680;5.134;2023-05-23T01:55:38;102037.25;;;13.47;100.00
70546;BME280;58098;51.680;5.134;2023-05-23T01:58:04;102042.69;;;13.44;100.00
70546;BME280;58098;51.680;5.134;2023-05-23T02:00:30;102056.31;;;13.49;100.00
70546;BME280;58098;51.680;5.134;2023-05-23T02:02:55;102053.91;;;13.46;100.00
70546;BME280;58098;51.680;5.134;2023-05-23T02:05:21;102058.44;;;13.44;100.00
70546;BME280;58098;51.680;5.134;2023-05-23T02:07:46;102058.88;;;13.38;100.00
70546;BME280;58098;51.680;5.134;2023-05-23T02:10:12;102066.66;;;13.27;100.00
70546;BME280;58098;51.680;5.134;2023-05-23T02:12:37;102064.63;;;13.43;100.00
70546;BME280;58098;51.680;5.134;2023-05-23T02:15:03;102036.38;;;13.23;100.00
70546;BME280;58098;51.680;5.134;2023-05-23T02:17:28;102066.59;;;13.52;100.00
70546;BME280;58098;51.680;5.134;2023-05-23T02:19:54;102064.13;;;13.38;100.00
70546;BME280;58098;51.680;5.134;2023-05-23T02:22:23;102072.50;;;13.43;100.00
70546;BME280;58098;51.680;5.134;2023-05-23T02:24:50;102064.53;;;13.45;100.00
70546;BME280;58098;51.680;5.134;2023-05-23T02:27:15;102063.28;;;13.38;100.00
70546;BME280;58098;51.680;5.134;2023-05-23T02:29:40;102079.63;;;13.41;100.00
70546;BME280;58098;51.680;5.134;2023-05-23T02:32:06;102072.19;;;13.35;100.00
70546;BME280;58098;51.680;5.134;2023-05-23T02:34:31;102075.66;;;13.36;100.00
70546;BME280;58098;51.680;5.134;2023-05-23T02:36:56;102070.63;;;13.33;100.00
70546;BME280;58098;51.680;5.134;2023-05-23T02:39:22;102068.13;;;13.31;100.00
70546;BME280;58098;51.680;5.134;2023-05-23T02:41:47;102073.31;;;13.44;100.00
70546;BME280;58098;51.680;5.134;2023-05-23T02:44:12;102058.44;;;13.44;100.00
70546;BME280;58098;51.680;5.134;2023-05-23T02:46:38;102083.47;;;13.48;100.00
70546;BME280;58098;51.680;5.134;2023-05-23T02:49:03;102066.59;;;13.52;100.00
70546;BME280;58098;51.680;5.134;2023-05-23T02:51:28;102065.53;;;13.55;100.00
70546;BME280;58098;51.680;5.134;2023-05-23T02:53:54;102044.16;;;13.48;100.00
70546;BME280;58098;51.680;5.134;2023-05-23T02:56:19;102058.59;;;13.54;100.00
70546;BME280;58098;51.680;5.134;2023-05-23T02:58:46;102057.56;;;13.56;100.00
70546;BME280;58098;51.680;5.134;2023-05-23T03:01:11;102057.75;;;13.53;100.00
70546;BME280;58098;51.680;5.134;2023-05-23T03:03:37;102058.72;;;13.52;100.00
70546;BME280;58098;51.680;5.134;2023-05-23T03:06:02;102068.16;;;13.55;100.00
70546;BME280;58098;51.680;5.134;2023-05-23T03:08:29;102059.78;;;13.50;100.00
70546;BME280;58098;51.680;5.134;2023-05-23T03:10:54;102067.53;;;13.51;100.00
70546;BME280;58098;51.680;5.134;2023-05-23T03:13:20;102073.13;;;13.47;100.00
70546;BME280;58098;51.680;5.134;2023-05-23T03:15:45;102082.13;;;13.55;100.00
70546;BME280;58098;51.680;5.134;2023-05-23T03:18:10;102077.41;;;13.48;100.00
70546;BME280;58098;51.680;5.134;2023-05-23T03:20:36;102074.56;;;13.51;100.00
70546;BME280;58098;51.680;5.134;2023-05-23T03:23:02;102063.47;;;13.47;100.00
70546;BME280;58098;51.680;5.134;2023-05-23T03:25:27;102056.44;;;13.48;100.00
70546;BME280;58098;51.680;5.134;2023-05-23T03:27:53;102090.09;;;13.54;100.00
70546;BME280;58098;51.680;5.134;2023-05-23T03:30:19;102076.03;;;13.55;100.00
70546;BME280;58098;51.680;5.134;2023-05-23T03:32:44;102072.06;;;13.49;100.00
70546;BME280;58098;51.680;5.134;2023-05-23T03:35:10;102080.84;;;13.48;100.00
70546;BME280;58098;51.680;5.134;2023-05-23T03:37:36;102070.38;;;13.48;100.00
70546;BME280;58098;51.680;5.134;2023-05-23T03:40:01;102075.63;;;13.48;100.00
70546;BME280;58098;51.680;5.134;2023-05-23T03:42:27;102086.53;;;13.55;100.00
70546;BME280;58098;51.680;5.134;2023-05-23T03:44:53;102075.84;;;13.45;100.00
70546;BME280;58098;51.680;5.134;2023-05-23T03:47:18;102079.41;;;13.44;100.00
70546;BME280;58098;51.680;5.134;2023-05-23T03:49:44;102092.63;;;13.43;100.00
70546;BME280;58098;51.680;5.134;2023-05-23T03:52:10;102084.88;;;13.41;100.00
70546;BME280;58098;51.680;5.134;2023-05-23T03:54:35;102085.91;;;13.39;100.00
70546;BME280;58098;51.680;5.134;2023-05-23T03:57:00;102094.94;;;13.47;100.00
70546;BME280;58098;51.680;5.134;2023-05-23T03:59:27;102101.09;;;13.46;100.00
70546;BME280;58098;51.680;5.134;2023-05-23T04:01:52;102102.28;;;13.42;100.00
70546;BME280;58098;51.680;5.134;2023-05-23T04:04:17;102099.16;;;13.37;100.00
70546;BME280;58098;51.680;5.134;2023-05-23T04:06:45;102113.63;;;13.43;100.00
70546;BME280;58098;51.680;5.134;2023-05-23T04:09:10;102111.09;;;13.41;100.00
70546;BME280;58098;51.680;5.134;2023-05-23T04:11:35;102115.72;;;13.38;100.00
70546;BME280;58098;51.680;5.134;2023-05-23T04:14:01;102097.91;;;13.30;100.00
70546;BME280;58098;51.680;5.134;2023-05-23T04:16:26;102099.50;;;13.20;100.00
70546;BME280;58098;51.680;5.134;2023-05-23T04:18:52;102118.66;;;13.33;100.00
70546;BME280;58098;51.680;5.134;2023-05-23T04:21:18;102114.47;;;13.31;100.00
70546;BME280;58098;51.680;5.134;2023-05-23T04:23:43;102105.97;;;13.27;100.00
70546;BME280;58098;51.680;5.134;2023-05-23T04:26:09;102111.44;;;13.24;100.00
70546;BME280;58098;51.680;5.134;2023-05-23T04:28:35;102124.00;;;13.32;100.00
70546;BME280;58098;51.680;5.134;2023-05-23T04:31:01;102130.22;;;13.31;100.00
70546;BME280;58098;51.680;5.134;2023-05-23T04:33:30;102105.66;;;13.19;100.00
70546;BME280;58098;51.680;5.134;2023-05-23T04:35:55;102151.78;;;13.21;100.00
70546;BME280;58098;51.680;5.134;2023-05-23T04:38:21;102130.94;;;13.20;100.00
70546;BME280;58098;51.680;5.134;2023-05-23T04:40:49;102118.47;;;13.11;100.00
70546;BME280;58098;51.680;5.134;2023-05-23T04:43:15;102136.63;;;13.14;100.00
70546;BME280;58098;51.680;5.134;2023-05-23T04:45:40;102128.13;;;13.10;100.00
70546;BME280;58098;51.680;5.134;2023-05-23T04:48:06;102147.84;;;13.16;100.00
70546;BME280;58098;51.680;5.134;2023-05-23T04:50:32;102155.53;;;13.05;100.00
70546;BME280;58098;51.680;5.134;2023-05-23T04:52:59;102145.31;;;13.14;100.00
70546;BME280;58098;51.680;5.134;2023-05-23T04:55:25;102150.00;;;13.09;100.00
70546;BME280;58098;51.680;5.134;2023-05-23T04:57:50;102151.13;;;12.93;100.00
70546;BME280;58098;51.680;5.134;2023-05-23T05:00:16;102149.69;;;12.89;100.00
70546;BME280;58098;51.680;5.134;2023-05-23T05:02:42;102150.00;;;12.97;100.00
70546;BME280;58098;51.680;5.134;2023-05-23T05:05:07;102141.28;;;12.84;100.00
70546;BME280;58098;51.680;5.134;2023-05-23T05:07:33;102168.00;;;12.89;100.00
70546;BME280;58098;51.680;5.134;2023-05-23T05:10:00;102174.13;;;13.02;100.00
70546;BME280;58098;51.680;5.134;2023-05-23T05:12:26;102170.22;;;12.95;100.00
70546;BME280;58098;51.680;5.134;2023-05-23T05:14:51;102158.91;;;12.94;100.00
70546;BME280;58098;51.680;5.134;2023-05-23T05:17:17;102175.44;;;12.95;100.00
70546;BME280;58098;51.680;5.134;2023-05-23T05:19:44;102185.72;;;12.98;100.00
70546;BME280;58098;51.680;5.134;2023-05-23T05:22:10;102185.50;;;12.88;100.00
70546;BME280;58098;51.680;5.134;2023-05-23T05:24:35;102197.44;;;12.92;100.00
70546;BME280;58098;51.680;5.134;2023-05-23T05:27:01;102155.34;;;12.95;100.00
70546;BME280;58098;51.680;5.134;2023-05-23T05:29:26;102182.81;;;12.90;100.00
70546;BME280;58098;51.680;5.134;2023-05-23T05:31:52;102189.91;;;12.88;100.00
70546;BME280;58098;51.680;5.134;2023-05-23T05:34:18;102172.53;;;12.87;100.00
70546;BME280;58098;51.680;5.134;2023-05-23T05:36:43;102195.38;;;12.85;100.00
70546;BME280;58098;51.680;5.134;2023-05-23T05:39:13;102206.44;;;12.76;100.00
70546;BME280;58098;51.680;5.134;2023-05-23T05:41:39;102197.00;;;12.61;100.00
70546;BME280;58098;51.680;5.134;2023-05-23T05:44:05;102199.94;;;12.69;100.00
70546;BME280;58098;51.680;5.134;2023-05-23T05:46:30;102214.78;;;12.68;100.00
70546;BME280;58098;51.680;5.134;2023-05-23T05:48:56;102212.28;;;12.67;100.00
70546;BME280;58098;51.680;5.134;2023-05-23T05:51:21;102225.19;;;12.70;100.00
70546;BME280;58098;51.680;5.134;2023-05-23T05:53:46;102222.88;;;12.78;100.00
70546;BME280;58098;51.680;5.134;2023-05-23T05:56:13;102235.72;;;12.82;100.00
70546;BME280;58098;51.680;5.134;2023-05-23T05:58:39;102231.28;;;12.83;100.00
70546;BME280;58098;51.680;5.134;2023-05-23T06:01:04;102241.56;;;12.86;100.00
70546;BME280;58098;51.680;5.134;2023-05-23T06:03:30;102225.28;;;12.68;100.00
70546;BME280;58098;51.680;5.134;2023-05-23T06:05:56;102230.56;;;12.81;100.00
70546;BME280;58098;51.680;5.134;2023-05-23T06:08:21;102237.81;;;12.63;100.00
70546;BME280;58098;51.680;5.134;2023-05-23T06:10:47;102239.38;;;12.80;100.00
70546;BME280;58098;51.680;5.134;2023-05-23T06:13:12;102229.69;;;12.68;100.00
70546;BME280;58098;51.680;5.134;2023-05-23T06:15:37;102221.91;;;12.66;100.00
70546;BME280;58098;51.680;5.134;2023-05-23T06:18:03;102250.28;;;12.59;100.00
70546;BME280;58098;51.680;5.134;2023-05-23T06:20:28;102251.75;;;12.64;100.00
70546;BME280;58098;51.680;5.134;2023-05-23T06:22:53;102254.69;;;12.59;100.00
70546;BME280;58098;51.680;5.134;2023-05-23T06:25:19;102262.06;;;12.67;100.00
70546;BME280;58098;51.680;5.134;2023-05-23T06:27:44;102245.34;;;12.55;100.00
70546;BME280;58098;51.680;5.134;2023-05-23T06:30:10;102259.44;;;12.67;100.00
70546;BME280;58098;51.680;5.134;2023-05-23T06:32:36;102257.34;;;12.72;100.00
70546;BME280;58098;51.680;5.134;2023-05-23T06:35:02;102260.41;;;12.78;100.00
70546;BME280;58098;51.680;5.134;2023-05-23T06:37:27;102253.38;;;12.79;100.00
70546;BME280;58098;51.680;5.134;2023-05-23T06:39:53;102266.03;;;12.99;100.00
70546;BME280;58098;51.680;5.134;2023-05-23T06:42:18;102264.00;;;13.16;100.00
70546;BME280;58098;51.680;5.134;2023-05-23T06:44:43;102257.91;;;13.41;100.00
70546;BME280;58098;51.680;5.134;2023-05-23T06:47:08;102267.06;;;13.61;100.00
70546;BME280;58098;51.680;5.134;2023-05-23T06:49:34;102270.84;;;13.57;100.00
70546;BME280;58098;51.680;5.134;2023-05-23T06:51:59;102279.22;;;13.49;100.00
70546;BME280;58098;51.680;5.134;2023-05-23T06:54:24;102273.59;;;13.55;100.00
70546;BME280;58098;51.680;5.134;2023-05-23T06:56:50;102283.31;;;13.66;100.00
70546;BME280;58098;51.680;5.134;2023-05-23T06:59:15;102274.50;;;13.67;100.00
70546;BME280;58098;51.680;5.134;2023-05-23T07:01:40;102278.91;;;13.66;100.00
70546;BME280;58098;51.680;5.134;2023-05-23T07:04:06;102282.06;;;13.71;100.00
70546;BME280;58098;51.680;5.134;2023-05-23T07:06:31;102302.41;;;13.68;100.00
70546;BME280;58098;51.680;5.134;2023-05-23T07:08:57;102290.13;;;13.68;100.00
70546;BME280;58098;51.680;5.134;2023-05-23T07:11:22;102290.88;;;13.70;100.00
70546;BME280;58098;51.680;5.134;2023-05-23T07:13:47;102286.78;;;13.66;100.00
70546;BME280;58098;51.680;5.134;2023-05-23T07:16:13;102305.97;;;13.54;100.00
70546;BME280;58098;51.680;5.134;2023-05-23T07:18:38;102314.16;;;13.37;100.00
70546;BME280;58098;51.680;5.134;2023-05-23T07:21:03;102310.38;;;13.41;100.00
70546;BME280;58098;51.680;5.134;2023-05-23T07:23:31;102306.81;;;13.42;100.00
70546;BME280;58098;51.680;5.134;2023-05-23T07:25:58;102326.44;;;13.49;100.00
70546;BME280;58098;51.680;5.134;2023-05-23T07:28:23;102329.59;;;13.54;100.00
70546;BME280;58098;51.680;5.134;2023-05-23T07:30:49;102322.66;;;13.53;100.00
70546;BME280;58098;51.680;5.134;2023-05-23T07:33:14;102325.50;;;13.63;100.00
70546;BME280;58098;51.680;5.134;2023-05-23T07:35:40;102320.47;;;13.47;100.00
70546;BME280;58098;51.680;5.134;2023-05-23T07:38:05;102330.63;;;13.52;100.00
70546;BME280;58098;51.680;5.134;2023-05-23T07:40:31;102319.50;;;13.48;100.00
70546;BME280;58098;51.680;5.134;2023-05-23T07:42:56;102320.56;;;13.58;100.00
70546;BME280;58098;51.680;5.134;2023-05-23T07:45:22;102325.09;;;13.69;100.00
70546;BME280;58098;51.680;5.134;2023-05-23T07:47:47;102326.66;;;13.71;100.00
70546;BME280;58098;51.680;5.134;2023-05-23T07:50:13;102325.81;;;13.58;100.00
70546;BME280;58098;51.680;5.134;2023-05-23T07:52:38;102331.47;;;13.52;100.00
70546;BME280;58098;51.680;5.134;2023-05-23T07:55:04;102338.63;;;13.50;100.00
70546;BME280;58098;51.680;5.134;2023-05-23T07:57:29;102338.50;;;13.52;100.00
70546;BME280;58098;51.680;5.134;2023-05-23T07:59:55;102332.94;;;13.56;100.00
70546;BME280;58098;51.680;5.134;2023-05-23T08:02:21;102335.97;;;13.63;100.00
70546;BME280;58098;51.680;5.134;2023-05-23T08:04:46;102325.72;;;13.60;100.00
70546;BME280;58098;51.680;5.134;2023-05-23T08:07:12;102344.69;;;13.63;100.00
70546;BME280;58098;51.680;5.134;2023-05-23T08:09:38;102332.75;;;13.59;100.00
70546;BME280;58098;51.680;5.134;2023-05-23T08:12:07;102343.44;;;13.56;100.00
70546;BME280;58098;51.680;5.134;2023-05-23T08:14:34;102343.53;;;13.55;100.00
70546;BME280;58098;51.680;5.134;2023-05-23T08:16:59;102339.22;;;13.41;100.00
70546;BME280;58098;51.680;5.134;2023-05-23T08:19:24;102350.97;;;13.48;100.00
70546;BME280;58098;51.680;5.134;2023-05-23T08:21:50;102336.81;;;13.51;100.00
70546;BME280;58098;51.680;5.134;2023-05-23T08:24:17;102350.91;;;13.62;100.00
70546;BME280;58098;51.680;5.134;2023-05-23T08:26:42;102355.72;;;13.68;100.00
70546;BME280;58098;51.680;5.134;2023-05-23T08:29:08;102339.88;;;13.82;100.00
70546;BME280;58098;51.680;5.134;2023-05-23T08:31:34;102354.91;;;14.06;100.00
70546;BME280;58098;51.680;5.134;2023-05-23T08:34:00;102343.03;;;14.38;100.00
70546;BME280;58098;51.680;5.134;2023-05-23T08:36:25;102345.03;;;14.58;100.00
70546;BME280;58098;51.680;5.134;2023-05-23T08:38:50;102356.59;;;14.92;100.00
70546;BME280;58098;51.680;5.134;2023-05-23T08:41:23;102347.25;;;15.11;100.00
70546;BME280;58098;51.680;5.134;2023-05-23T08:43:48;102346.81;;;15.17;100.00
70546;BME280;58098;51.680;5.134;2023-05-23T08:46:14;102358.81;;;15.33;100.00
70546;BME280;58098;51.680;5.134;2023-05-23T08:48:41;102364.09;;;15.44;100.00
70546;BME280;58098;51.680;5.134;2023-05-23T08:51:09;102357.63;;;15.37;100.00
70546;BME280;58098;51.680;5.134;2023-05-23T08:53:37;102362.25;;;14.98;100.00
70546;BME280;58098;51.680;5.134;2023-05-23T08:56:05;102358.41;;;14.91;100.00
70546;BME280;58098;51.680;5.134;2023-05-23T08:58:31;102370.03;;;15.00;100.00
70546;BME280;58098;51.680;5.134;2023-05-23T09:00:58;102369.25;;;14.87;100.00
70546;BME280;58098;51.680;5.134;2023-05-23T09:03:27;102372.56;;;15.01;100.00
70546;BME280;58098;51.680;5.134;2023-05-23T09:05:55;102374.28;;;15.13;100.00
70546;BME280;58098;51.680;5.134;2023-05-23T09:08:22;102377.44;;;15.30;100.00
70546;BME280;58098;51.680;5.134;2023-05-23T09:10:49;102382.50;;;15.33;100.00
70546;BME280;58098;51.680;5.134;2023-05-23T09:13:15;102366.00;;;15.42;100.00
70546;BME280;58098;51.680;5.134;2023-05-23T09:16:02;102382.84;;;15.63;100.00
70546;BME280;58098;51.680;5.134;2023-05-23T09:18:36;102384.31;;;15.78;100.00
70546;BME280;58098;51.680;5.134;2023-05-23T09:21:01;102383.63;;;15.87;100.00
70546;BME280;58098;51.680;5.134;2023-05-23T09:23:31;102385.34;;;16.10;100.00
70546;BME280;58098;51.680;5.134;2023-05-23T09:26:01;102381.72;;;16.00;100.00
70546;BME280;58098;51.680;5.134;2023-05-23T09:28:26;102388.78;;;16.00;100.00
70546;BME280;58098;51.680;5.134;2023-05-23T09:31:02;102394.41;;;15.84;100.00
70546;BME280;58098;51.680;5.134;2023-05-23T09:33:37;102379.09;;;16.00;100.00
70546;BME280;58098;51.680;5.134;2023-05-23T09:36:04;102384.03;;;16.16;100.00
70546;BME280;58098;51.680;5.134;2023-05-23T09:38:29;102379.34;;;16.19;100.00
70546;BME280;58098;51.680;5.134;2023-05-23T09:40:54;102386.53;;;16.39;100.00
70546;BME280;58098;51.680;5.134;2023-05-23T09:43:22;102380.19;;;16.42;100.00
70546;BME280;58098;51.680;5.134;2023-05-23T09:45:47;102380.75;;;16.45;100.00
70546;BME280;58098;51.680;5.134;2023-05-23T09:48:12;102391.81;;;16.39;100.00
70546;BME280;58098;51.680;5.134;2023-05-23T09:50:38;102379.09;;;16.44;100.00
70546;BME280;58098;51.680;5.134;2023-05-23T09:53:04;102392.06;;;16.59;100.00
70546;BME280;58098;51.680;5.134;2023-05-23T09:55:32;102389.28;;;16.60;100.00
70546;BME280;58098;51.680;5.134;2023-05-23T09:57:58;102400.44;;;16.64;100.00
70546;BME280;58098;51.680;5.134;2023-05-23T10:00:24;102382.22;;;16.49;100.00
70546;BME280;58098;51.680;5.134;2023-05-23T10:03:11;102402.22;;;16.63;100.00
70546;BME280;58098;51.680;5.134;2023-05-23T10:05:40;102391.31;;;16.79;100.00
70546;BME280;58098;51.680;5.134;2023-05-23T10:08:29;102391.41;;;16.77;100.00
70546;BME280;58098;51.680;5.134;2023-05-23T10:13:25;102388.44;;;16.37;100.00
70546;BME280;58098;51.680;5.134;2023-05-23T10:15:59;102389.66;;;16.67;100.00
70546;BME280;58098;51.680;5.134;2023-05-23T10:18:28;102397.06;;;16.73;100.00
70546;BME280;58098;51.680;5.134;2023-05-23T10:20:56;102413.16;;;17.12;100.00
70546;BME280;58098;51.680;5.134;2023-05-23T10:23:28;102401.47;;;17.26;100.00
70546;BME280;58098;51.680;5.134;2023-05-23T10:25:54;102384.50;;;17.71;100.00
70546;BME280;58098;51.680;5.134;2023-05-23T10:28:19;102367.22;;;17.88;100.00
70546;BME280;58098;51.680;5.134;2023-05-23T10:30:45;102375.03;;;17.99;100.00
70546;BME280;58098;51.680;5.134;2023-05-23T10:33:13;102392.09;;;18.16;100.00
70546;BME280;58098;51.680;5.134;2023-05-23T10:35:52;102402.47;;;18.59;100.00
70546;BME280;58098;51.680;5.134;2023-05-23T10:38:32;102397.50;;;18.84;100.00
70546;BME280;58098;51.680;5.134;2023-05-23T10:41:20;102395.97;;;18.82;100.00
70546;BME280;58098;51.680;5.134;2023-05-23T10:43:54;102396.63;;;18.74;100.00
70546;BME280;58098;51.680;5.134;2023-05-23T10:46:21;102395.25;;;18.70;100.00
70546;BME280;58098;51.680;5.134;2023-05-23T10:48:47;102390.16;;;19.17;100.00
70546;BME280;58098;51.680;5.134;2023-05-23T10:51:14;102401.59;;;19.07;100.00
70546;BME280;58098;51.680;5.134;2023-05-23T10:53:41;102380.00;;;19.22;100.00
70546;BME280;58098;51.680;5.134;2023-05-23T10:56:08;102395.03;;;18.92;100.00
70546;BME280;58098;51.680;5.134;2023-05-23T10:58:35;102398.25;;;19.25;100.00
70546;BME280;58098;51.680;5.134;2023-05-23T11:01:05;102388.94;;;19.40;100.00
70546;BME280;58098;51.680;5.134;2023-05-23T11:03:49;102392.69;;;19.56;100.00
70546;BME280;58098;51.680;5.134;2023-05-23T11:09:01;102396.84;;;19.01;100.00
70546;BME280;58098;51.680;5.134;2023-05-23T11:11:50;102401.34;;;19.39;100.00
70546;BME280;58098;51.680;5.134;2023-05-23T11:14:16;102393.22;;;19.69;100.00
70546;BME280;58098;51.680;5.134;2023-05-23T11:16:43;102385.28;;;19.31;100.00
70546;BME280;58098;51.680;5.134;2023-05-23T11:21:49;102372.75;;;19.14;100.00
70546;BME280;58098;51.680;5.134;2023-05-23T11:24:14;102394.66;;;18.67;100.00
70546;BME280;58098;51.680;5.134;2023-05-23T11:26:51;102389.41;;;18.36;100.00
70546;BME280;58098;51.680;5.134;2023-05-23T11:29:17;102390.91;;;18.69;100.00
70546;BME280;58098;51.680;5.134;2023-05-23T11:31:43;102390.28;;;18.96;100.00
70546;BME280;58098;51.680;5.134;2023-05-23T11:34:08;102390.06;;;19.56;100.00
70546;BME280;58098;51.680;5.134;2023-05-23T11:36:34;102391.44;;;19.51;100.00
70546;BME280;58098;51.680;5.134;2023-05-23T11:39:01;102380.53;;;19.73;100.00
70546;BME280;58098;51.680;5.134;2023-05-23T11:41:27;102398.53;;;20.16;100.00
70546;BME280;58098;51.680;5.134;2023-05-23T11:43:53;102388.97;;;19.96;100.00
70546;BME280;58098;51.680;5.134;2023-05-23T11:46:19;102385.88;;;19.54;100.00
70546;BME280;58098;51.680;5.134;2023-05-23T11:48:45;102410.31;;;19.94;100.00
70546;BME280;58098;51.680;5.134;2023-05-23T11:51:11;102393.88;;;19.81;100.00
70546;BME280;58098;51.680;5.134;2023-05-23T11:53:36;102396.75;;;19.51;100.00
70546;BME280;58098;51.680;5.134;2023-05-23T11:56:02;102404.63;;;19.89;100.00
70546;BME280;58098;51.680;5.134;2023-05-23T11:58:38;102404.78;;;19.88;100.00
70546;BME280;58098;51.680;5.134;2023-05-23T12:01:05;102405.66;;;19.50;100.00
70546;BME280;58098;51.680;5.134;2023-05-23T12:03:33;102408.97;;;19.33;100.00
70546;BME280;58098;51.680;5.134;2023-05-23T12:05:59;102399.75;;;19.08;100.00
70546;BME280;58098;51.680;5.134;2023-05-23T12:08:26;102418.72;;;19.13;100.00
70546;BME280;58098;51.680;5.134;2023-05-23T12:10:52;102413.09;;;18.87;100.00
70546;BME280;58098;51.680;5.134;2023-05-23T12:13:19;102418.91;;;18.72;100.00
70546;BME280;58098;51.680;5.134;2023-05-23T12:15:47;102423.72;;;19.06;100.00
70546;BME280;58098;51.680;5.134;2023-05-23T12:18:13;102404.81;;;19.40;100.00
70546;BME280;58098;51.680;5.134;2023-05-23T12:20:39;102408.69;;;19.74;100.00
70546;BME280;58098;51.680;5.134;2023-05-23T12:23:05;102420.97;;;19.65;100.00
70546;BME280;58098;51.680;5.134;2023-05-23T12:25:39;102410.81;;;19.61;100.00
70546;BME280;58098;51.680;5.134;2023-05-23T12:28:08;102427.94;;;19.66;100.00
70546;BME280;58098;51.680;5.134;2023-05-23T12:30:41;102417.63;;;19.73;100.00
70546;BME280;58098;51.680;5.134;2023-05-23T12:33:08;102430.75;;;19.55;100.00
70546;BME280;58098;51.680;5.134;2023-05-23T12:35:33;102425.72;;;19.62;100.00
70546;BME280;58098;51.680;5.134;2023-05-23T12:37:58;102427.13;;;19.66;100.00
70546;BME280;58098;51.680;5.134;2023-05-23T12:40:24;102418.47;;;19.83;100.00
70546;BME280;58098;51.680;5.134;2023-05-23T12:45:16;102415.69;;;21.03;89.11
70546;BME280;58098;51.680;5.134;2023-05-23T12:47:41;102420.97;;;21.13;84.97
70546;BME280;58098;51.680;5.134;2023-05-23T12:50:07;102420.47;;;20.82;95.10
70546;BME280;58098;51.680;5.134;2023-05-23T12:52:32;102417.91;;;20.63;93.28
70546;BME280;58098;51.680;5.134;2023-05-23T12:54:57;102413.91;;;20.59;89.83
70546;BME280;58098;51.680;5.134;2023-05-23T12:57:23;102422.66;;;21.14;80.70
70546;BME280;58098;51.680;5.134;2023-05-23T12:59:48;102392.91;;;21.89;76.82